sensor_id;sensor_type;location;lat;lon;timestamp;P1;durP1;ratioP1;P2;durP2;ratioP2
14734;SDS011;7458;49.002;8.472;2024-01-30T00:01:05;18.42;;;11.40;;
14734;SDS011;7458;49.002;8.472;2024-01-30T00:03:31;17.67;;;13.70;;
14734;SDS011;7458;49.002;8.472;2024-01-30T00:05:57;16.70;;;10.38;;
14734;SDS011;7458;49.002;8.472;2024-01-30T00:08:23;16.35;;;12.43;;
14734;SDS011;7458;49.002;8.472;2024-01-30T00:10:48;13.95;;;12.05;;
14734;SDS011;7458;49.002;8.472;2024-01-30T00:13:14;18.63;;;14.10;;
14734;SDS011;7458;49.002;8.472;2024-01-30T00:15:42;16.38;;;12.88;;
14734;SDS011;7458;49.002;8.472;2024-01-30T00:18:08;13.55;;;10.73;;
14734;SDS011;7458;49.002;8.472;2024-01-30T00:20:34;12.40;;;11.15;;
14734;SDS011;7458;49.002;8.472;2024-01-30T00:23:01;17.17;;;11.68;;
14734;SDS011;7458;49.002;8.472;2024-01-30T00:25:27;16.80;;;12.30;;
14734;SDS011;7458;49.002;8.472;2024-01-30T00:27:53;16.55;;;10.75;;
14734;SDS011;7458;49.002;8.472;2024-01-30T00:30:20;10.98;;;9.35;;
14734;SDS011;7458;49.002;8.472;2024-01-30T00:32:46;14.60;;;11.57;;
14734;SDS011;7458;49.002;8.472;2024-01-30T00:35:12;18.42;;;13.55;;
14734;SDS011;7458;49.002;8.472;2024-01-30T00:37:38;13.98;;;10.68;;
14734;SDS011;7458;49.002;8.472;2024-01-30T00:40:04;17.35;;;11.18;;
14734;SDS011;7458;49.002;8.472;2024-01-30T00:42:31;23.17;;;12.65;;
14734;SDS011;7458;49.002;8.472;2024-01-30T00:44:57;15.30;;;12.60;;
14734;SDS011;7458;49.002;8.472;2024-01-30T00:47:23;13.18;;;10.52;;
14734;SDS011;7458;49.002;8.472;2024-01-30T00:49:49;11.80;;;10.57;;
14734;SDS011;7458;49.002;8.472;2024-01-30T00:52:15;13.90;;;12.18;;
14734;SDS011;7458;49.002;8.472;2024-01-30T00:54:41;14.68;;;13.23;;
14734;SDS011;7458;49.002;8.472;2024-01-30T00:57:08;18.30;;;10.65;;
14734;SDS011;7458;49.002;8.472;2024-01-30T00:59:34;18.25;;;14.80;;
14734;SDS011;7458;49.002;8.472;2024-01-30T01:02:01;12.80;;;10.60;;
14734;SDS011;7458;49.002;8.472;2024-01-30T01:04:26;13.23;;;11.52;;
14734;SDS011;7458;49.002;8.472;2024-01-30T01:06:53;15.35;;;11.27;;
14734;SDS011;7458;49.002;8.472;2024-01-30T01:09:19;16.42;;;10.90;;
14734;SDS011;7458;49.002;8.472;2024-01-30T01:11:45;17.02;;;11.40;;
14734;SDS011;7458;49.002;8.472;2024-01-30T01:14:11;19.13;;;11.75;;
14734;SDS011;7458;49.002;8.472;2024-01-30T01:16:37;12.43;;;9.98;;
14734;SDS011;7458;49.002;8.472;2024-01-30T01:19:03;17.23;;;11.93;;
14734;SDS011;7458;49.002;8.472;2024-01-30T01:21:29;15.18;;;11.38;;
14734;SDS011;7458;49.002;8.472;2024-01-30T01:23:55;16.30;;;13.40;;
14734;SDS011;7458;49.002;8.472;2024-01-30T01:26:22;13.65;;;11.70;;
14734;SDS011;7458;49.002;8.472;2024-01-30T01:28:48;15.20;;;10.25;;
14734;SDS011;7458;49.002;8.472;2024-01-30T01:31:14;14.10;;;9.95;;
14734;SDS011;7458;49.002;8.472;2024-01-30T01:33:54;15.40;;;11.77;;
14734;SDS011;7458;49.002;8.472;2024-01-30T01:36:20;15.73;;;11.02;;
14734;SDS011;7458;49.002;8.472;2024-01-30T01:38:46;12.07;;;10.10;;
14734;SDS011;7458;49.002;8.472;2024-01-30T01:41:13;10.82;;;8.43;;
14734;SDS011;7458;49.002;8.472;2024-01-30T01:43:39;12.23;;;10.82;;
14734;SDS011;7458;49.002;8.472;2024-01-30T01:46:06;13.38;;;9.00;;
14734;SDS011;7458;49.002;8.472;2024-01-30T01:48:33;14.85;;;10.18;;
14734;SDS011;7458;49.002;8.472;2024-01-30T01:50:59;13.07;;;10.07;;
14734;SDS011;7458;49.002;8.472;2024-01-30T01:53:25;11.40;;;8.85;;
14734;SDS011;7458;49.002;8.472;2024-01-30T01:55:51;13.52;;;10.23;;
14734;SDS011;7458;49.002;8.472;2024-01-30T01:58:18;12.43;;;11.10;;
14734;SDS011;7458;49.002;8.472;2024-01-30T02:00:47;12.68;;;10.85;;
14734;SDS011;7458;49.002;8.472;2024-01-30T02:03:13;11.52;;;8.95;;
14734;SDS011;7458;49.002;8.472;2024-01-30T02:05:42;15.93;;;9.63;;
14734;SDS011;7458;49.002;8.472;2024-01-30T02:08:08;11.20;;;10.05;;
14734;SDS011;7458;49.002;8.472;2024-01-30T02:10:35;13.55;;;9.38;;
14734;SDS011;7458;49.002;8.472;2024-01-30T02:13:01;14.60;;;9.68;;
14734;SDS011;7458;49.002;8.472;2024-01-30T02:15:28;13.35;;;10.35;;
14734;SDS011;7458;49.002;8.472;2024-01-30T02:17:54;10.95;;;9.63;;
14734;SDS011;7458;49.002;8.472;2024-01-30T02:20:20;11.45;;;10.10;;
14734;SDS011;7458;49.002;8.472;2024-01-30T02:22:49;14.88;;;10.60;;
14734;SDS011;7458;49.002;8.472;2024-01-30T02:25:19;11.25;;;8.65;;
14734;SDS011;7458;49.002;8.472;2024-01-30T02:27:45;13.05;;;10.00;;
14734;SDS011;7458;49.002;8.472;2024-01-30T02:30:11;13.98;;;11.40;;
14734;SDS011;7458;49.002;8.472;2024-01-30T02:32:37;12.88;;;9.50;;
14734;SDS011;7458;49.002;8.472;2024-01-30T02:35:04;18.92;;;10.70;;
14734;SDS011;7458;49.002;8.472;2024-01-30T02:37:30;11.13;;;8.00;;
14734;SDS011;7458;49.002;8.472;2024-01-30T02:39:56;10.85;;;9.75;;
14734;SDS011;7458;49.002;8.472;2024-01-30T02:42:22;12.20;;;8.95;;
14734;SDS011;7458;49.002;8.472;2024-01-30T02:44:48;11.93;;;8.98;;
14734;SDS011;7458;49.002;8.472;2024-01-30T02:47:14;10.30;;;8.88;;
14734;SDS011;7458;49.002;8.472;2024-01-30T02:49:40;10.90;;;9.45;;
14734;SDS011;7458;49.002;8.472;2024-01-30T02:52:06;9.85;;;7.88;;
14734;SDS011;7458;49.002;8.472;2024-01-30T02:54:32;11.25;;;8.52;;
14734;SDS011;7458;49.002;8.472;2024-01-30T02:56:58;11.93;;;9.60;;
14734;SDS011;7458;49.002;8.472;2024-01-30T02:59:25;11.38;;;9.45;;
14734;SDS011;7458;49.002;8.472;2024-01-30T03:01:51;9.32;;;7.72;;
14734;SDS011;7458;49.002;8.472;2024-01-30T03:04:16;12.05;;;8.10;;
14734;SDS011;7458;49.002;8.472;2024-01-30T03:06:46;12.07;;;9.18;;
14734;SDS011;7458;49.002;8.472;2024-01-30T03:09:12;10.68;;;7.68;;
14734;SDS011;7458;49.002;8.472;2024-01-30T03:11:38;12.13;;;8.20;;
14734;SDS011;7458;49.002;8.472;2024-01-30T03:14:04;11.65;;;7.88;;
14734;SDS011;7458;49.002;8.472;2024-01-30T03:16:30;17.73;;;8.00;;
14734;SDS011;7458;49.002;8.472;2024-01-30T03:18:56;14.18;;;9.23;;
14734;SDS011;7458;49.002;8.472;2024-01-30T03:21:22;12.63;;;8.05;;
14734;SDS011;7458;49.002;8.472;2024-01-30T03:23:48;9.40;;;8.18;;
14734;SDS011;7458;49.002;8.472;2024-01-30T03:26:14;12.70;;;8.80;;
14734;SDS011;7458;49.002;8.472;2024-01-30T03:28:40;10.13;;;8.13;;
14734;SDS011;7458;49.002;8.472;2024-01-30T03:31:06;12.60;;;7.60;;
14734;SDS011;7458;49.002;8.472;2024-01-30T03:33:32;13.35;;;7.90;;
14734;SDS011;7458;49.002;8.472;2024-01-30T03:36:02;11.82;;;8.57;;
14734;SDS011;7458;49.002;8.472;2024-01-30T03:38:29;13.60;;;8.02;;
14734;SDS011;7458;49.002;8.472;2024-01-30T03:40:57;9.15;;;7.82;;
14734;SDS011;7458;49.002;8.472;2024-01-30T03:43:24;11.02;;;7.40;;
14734;SDS011;7458;49.002;8.472;2024-01-30T03:45:50;11.95;;;9.02;;
14734;SDS011;7458;49.002;8.472;2024-01-30T03:48:16;8.55;;;7.65;;
14734;SDS011;7458;49.002;8.472;2024-01-30T03:50:42;10.02;;;6.85;;
14734;SDS011;7458;49.002;8.472;2024-01-30T03:53:08;10.02;;;7.25;;
14734;SDS011;7458;49.002;8.472;2024-01-30T03:55:34;11.40;;;9.85;;
14734;SDS011;7458;49.002;8.472;2024-01-30T03:58:01;10.38;;;8.20;;
14734;SDS011;7458;49.002;8.472;2024-01-30T04:00:27;12.50;;;9.80;;
14734;SDS011;7458;49.002;8.472;2024-01-30T04:02:53;9.05;;;7.82;;
14734;SDS011;7458;49.002;8.472;2024-01-30T04:05:19;12.88;;;7.15;;
14734;SDS011;7458;49.002;8.472;2024-01-30T04:07:45;14.00;;;7.60;;
14734;SDS011;7458;49.002;8.472;2024-01-30T04:10:11;10.68;;;7.30;;
14734;SDS011;7458;49.002;8.472;2024-01-30T04:12:37;8.10;;;6.55;;
14734;SDS011;7458;49.002;8.472;2024-01-30T04:15:03;9.75;;;7.03;;
14734;SDS011;7458;49.002;8.472;2024-01-30T04:17:30;10.00;;;7.03;;
14734;SDS011;7458;49.002;8.472;2024-01-30T04:19:55;12.45;;;8.27;;
14734;SDS011;7458;49.002;8.472;2024-01-30T04:22:21;11.57;;;8.55;;
14734;SDS011;7458;49.002;8.472;2024-01-30T04:24:48;9.68;;;7.97;;
14734;SDS011;7458;49.002;8.472;2024-01-30T04:27:14;9.30;;;6.18;;
14734;SDS011;7458;49.002;8.472;2024-01-30T04:29:40;10.88;;;6.38;;
14734;SDS011;7458;49.002;8.472;2024-01-30T04:32:06;11.18;;;6.20;;
14734;SDS011;7458;49.002;8.472;2024-01-30T04:34:32;10.50;;;7.25;;
14734;SDS011;7458;49.002;8.472;2024-01-30T04:36:58;10.15;;;7.00;;
14734;SDS011;7458;49.002;8.472;2024-01-30T04:39:24;8.93;;;6.40;;
14734;SDS011;7458;49.002;8.472;2024-01-30T04:41:50;7.95;;;6.72;;
14734;SDS011;7458;49.002;8.472;2024-01-30T04:44:17;10.88;;;7.28;;
14734;SDS011;7458;49.002;8.472;2024-01-30T04:46:43;9.18;;;7.63;;
14734;SDS011;7458;49.002;8.472;2024-01-30T04:49:08;9.40;;;7.20;;
14734;SDS011;7458;49.002;8.472;2024-01-30T04:51:35;11.05;;;6.50;;
14734;SDS011;7458;49.002;8.472;2024-01-30T04:54:01;11.18;;;6.10;;
14734;SDS011;7458;49.002;8.472;2024-01-30T04:56:27;10.50;;;8.10;;
14734;SDS011;7458;49.002;8.472;2024-01-30T04:58:53;8.15;;;6.68;;
14734;SDS011;7458;49.002;8.472;2024-01-30T05:01:19;9.52;;;6.65;;
14734;SDS011;7458;49.002;8.472;2024-01-30T05:03:45;13.43;;;11.27;;
14734;SDS011;7458;49.002;8.472;2024-01-30T05:06:11;13.85;;;6.72;;
14734;SDS011;7458;49.002;8.472;2024-01-30T05:08:37;8.40;;;6.38;;
14734;SDS011;7458;49.002;8.472;2024-01-30T05:11:05;8.88;;;6.60;;
14734;SDS011;7458;49.002;8.472;2024-01-30T05:13:31;11.52;;;6.05;;
14734;SDS011;7458;49.002;8.472;2024-01-30T05:15:57;8.73;;;6.22;;
14734;SDS011;7458;49.002;8.472;2024-01-30T05:18:24;7.75;;;5.93;;
14734;SDS011;7458;49.002;8.472;2024-01-30T05:20:50;7.22;;;6.45;;
14734;SDS011;7458;49.002;8.472;2024-01-30T05:23:16;7.95;;;5.85;;
14734;SDS011;7458;49.002;8.472;2024-01-30T05:25:42;9.15;;;6.70;;
14734;SDS011;7458;49.002;8.472;2024-01-30T05:28:08;8.90;;;7.20;;
14734;SDS011;7458;49.002;8.472;2024-01-30T05:30:34;7.93;;;6.18;;
14734;SDS011;7458;49.002;8.472;2024-01-30T05:33:00;8.25;;;6.10;;
14734;SDS011;7458;49.002;8.472;2024-01-30T05:35:26;8.43;;;5.65;;
14734;SDS011;7458;49.002;8.472;2024-01-30T05:37:52;8.88;;;6.35;;
14734;SDS011;7458;49.002;8.472;2024-01-30T05:40:18;7.20;;;6.40;;
14734;SDS011;7458;49.002;8.472;2024-01-30T05:42:44;7.47;;;6.78;;
14734;SDS011;7458;49.002;8.472;2024-01-30T05:45:11;8.63;;;6.63;;
14734;SDS011;7458;49.002;8.472;2024-01-30T05:47:36;10.07;;;7.65;;
14734;SDS011;7458;49.002;8.472;2024-01-30T05:50:02;8.90;;;7.07;;
14734;SDS011;7458;49.002;8.472;2024-01-30T05:52:29;9.45;;;6.95;;
14734;SDS011;7458;49.002;8.472;2024-01-30T05:54:54;6.30;;;5.57;;
14734;SDS011;7458;49.002;8.472;2024-01-30T05:57:21;10.52;;;7.10;;
14734;SDS011;7458;49.002;8.472;2024-01-30T05:59:47;6.68;;;5.45;;
14734;SDS011;7458;49.002;8.472;2024-01-30T06:02:13;7.78;;;6.63;;
14734;SDS011;7458;49.002;8.472;2024-01-30T06:04:39;10.60;;;7.85;;
14734;SDS011;7458;49.002;8.472;2024-01-30T06:07:05;11.07;;;5.95;;
14734;SDS011;7458;49.002;8.472;2024-01-30T06:09:32;8.55;;;6.60;;
14734;SDS011;7458;49.002;8.472;2024-01-30T06:11:58;7.45;;;5.85;;
14734;SDS011;7458;49.002;8.472;2024-01-30T06:14:24;9.55;;;6.55;;
14734;SDS011;7458;49.002;8.472;2024-01-30T06:16:50;10.23;;;6.75;;
14734;SDS011;7458;49.002;8.472;2024-01-30T06:19:16;14.18;;;6.47;;
14734;SDS011;7458;49.002;8.472;2024-01-30T06:21:42;9.63;;;8.10;;
14734;SDS011;7458;49.002;8.472;2024-01-30T06:24:10;8.48;;;6.45;;
14734;SDS011;7458;49.002;8.472;2024-01-30T06:26:36;9.60;;;5.63;;
14734;SDS011;7458;49.002;8.472;2024-01-30T06:29:02;9.40;;;7.20;;
14734;SDS011;7458;49.002;8.472;2024-01-30T06:31:28;8.80;;;7.00;;
14734;SDS011;7458;49.002;8.472;2024-01-30T06:33:54;7.40;;;5.15;;
14734;SDS011;7458;49.002;8.472;2024-01-30T06:36:20;9.07;;;5.63;;
14734;SDS011;7458;49.002;8.472;2024-01-30T06:38:46;15.32;;;7.90;;
14734;SDS011;7458;49.002;8.472;2024-01-30T06:41:12;9.25;;;6.80;;
14734;SDS011;7458;49.002;8.472;2024-01-30T06:43:39;9.65;;;7.40;;
14734;SDS011;7458;49.002;8.472;2024-01-30T06:46:05;8.65;;;6.07;;
14734;SDS011;7458;49.002;8.472;2024-01-30T06:48:30;12.15;;;7.78;;
14734;SDS011;7458;49.002;8.472;2024-01-30T06:50:56;8.32;;;5.53;;
14734;SDS011;7458;49.002;8.472;2024-01-30T06:53:23;7.95;;;6.30;;
14734;SDS011;7458;49.002;8.472;2024-01-30T06:55:51;6.53;;;5.85;;
14734;SDS011;7458;49.002;8.472;2024-01-30T06:58:17;12.02;;;8.73;;
14734;SDS011;7458;49.002;8.472;2024-01-30T07:00:43;11.70;;;8.27;;
14734;SDS011;7458;49.002;8.472;2024-01-30T07:03:09;11.20;;;7.80;;
14734;SDS011;7458;49.002;8.472;2024-01-30T07:05:36;11.55;;;5.55;;
14734;SDS011;7458;49.002;8.472;2024-01-30T07:08:02;8.98;;;6.68;;
14734;SDS011;7458;49.002;8.472;2024-01-30T07:10:28;9.02;;;7.18;;
14734;SDS011;7458;49.002;8.472;2024-01-30T07:12:54;7.15;;;6.35;;
14734;SDS011;7458;49.002;8.472;2024-01-30T07:15:20;10.13;;;7.25;;
14734;SDS011;7458;49.002;8.472;2024-01-30T07:17:46;17.08;;;11.13;;
14734;SDS011;7458;49.002;8.472;2024-01-30T07:20:12;8.93;;;7.00;;
14734;SDS011;7458;49.002;8.472;2024-01-30T07:22:39;10.60;;;8.68;;
14734;SDS011;7458;49.002;8.472;2024-01-30T07:25:05;10.90;;;8.75;;
14734;SDS011;7458;49.002;8.472;2024-01-30T07:27:32;12.00;;;7.18;;
14734;SDS011;7458;49.002;8.472;2024-01-30T07:29:58;14.43;;;8.60;;
14734;SDS011;7458;49.002;8.472;2024-01-30T07:32:24;12.10;;;7.60;;
14734;SDS011;7458;49.002;8.472;2024-01-30T07:34:50;9.45;;;7.97;;
14734;SDS011;7458;49.002;8.472;2024-01-30T07:37:16;13.85;;;7.97;;
14734;SDS011;7458;49.002;8.472;2024-01-30T07:39:42;9.35;;;6.47;;
14734;SDS011;7458;49.002;8.472;2024-01-30T07:42:09;11.07;;;6.97;;
14734;SDS011;7458;49.002;8.472;2024-01-30T07:44:35;7.90;;;7.10;;
14734;SDS011;7458;49.002;8.472;2024-01-30T07:47:01;10.43;;;8.43;;
14734;SDS011;7458;49.002;8.472;2024-01-30T07:49:28;11.18;;;7.18;;
14734;SDS011;7458;49.002;8.472;2024-01-30T07:51:53;7.07;;;5.85;;
14734;SDS011;7458;49.002;8.472;2024-01-30T07:54:19;11.90;;;7.50;;
14734;SDS011;7458;49.002;8.472;2024-01-30T07:56:45;7.40;;;6.68;;
14734;SDS011;7458;49.002;8.472;2024-01-30T07:59:11;9.85;;;7.38;;
14734;SDS011;7458;49.002;8.472;2024-01-30T08:01:37;8.68;;;7.80;;
14734;SDS011;7458;49.002;8.472;2024-01-30T08:04:03;21.17;;;8.60;;
14734;SDS011;7458;49.002;8.472;2024-01-30T08:06:30;9.20;;;7.65;;
14734;SDS011;7458;49.002;8.472;2024-01-30T08:08:55;8.90;;;6.15;;
14734;SDS011;7458;49.002;8.472;2024-01-30T08:11:23;10.13;;;6.32;;
14734;SDS011;7458;49.002;8.472;2024-01-30T08:13:51;10.60;;;7.85;;
14734;SDS011;7458;49.002;8.472;2024-01-30T08:16:17;10.70;;;7.45;;
14734;SDS011;7458;49.002;8.472;2024-01-30T08:18:44;11.40;;;6.35;;
14734;SDS011;7458;49.002;8.472;2024-01-30T08:21:10;7.70;;;5.95;;
14734;SDS011;7458;49.002;8.472;2024-01-30T08:23:38;14.10;;;6.88;;
14734;SDS011;7458;49.002;8.472;2024-01-30T08:26:04;9.13;;;5.80;;
14734;SDS011;7458;49.002;8.472;2024-01-30T08:28:31;8.93;;;6.68;;
14734;SDS011;7458;49.002;8.472;2024-01-30T08:30:57;10.60;;;7.38;;
14734;SDS011;7458;49.002;8.472;2024-01-30T08:33:23;8.40;;;6.03;;
14734;SDS011;7458;49.002;8.472;2024-01-30T08:35:49;11.52;;;7.82;;
14734;SDS011;7458;49.002;8.472;2024-01-30T08:38:15;7.35;;;6.60;;
14734;SDS011;7458;49.002;8.472;2024-01-30T08:40:41;6.97;;;5.97;;
14734;SDS011;7458;49.002;8.472;2024-01-30T08:43:06;7.72;;;6.32;;
14734;SDS011;7458;49.002;8.472;2024-01-30T08:45:35;12.57;;;7.85;;
14734;SDS011;7458;49.002;8.472;2024-01-30T08:48:01;10.10;;;8.07;;
14734;SDS011;7458;49.002;8.472;2024-01-30T08:50:27;9.75;;;7.40;;
14734;SDS011;7458;49.002;8.472;2024-01-30T08:52:53;10.57;;;8.73;;
14734;SDS011;7458;49.002;8.472;2024-01-30T08:55:19;10.90;;;7.13;;
14734;SDS011;7458;49.002;8.472;2024-01-30T08:57:45;8.00;;;6.03;;
14734;SDS011;7458;49.002;8.472;2024-01-30T09:00:11;8.10;;;6.38;;
14734;SDS011;7458;49.002;8.472;2024-01-30T09:02:38;10.50;;;7.53;;
14734;SDS011;7458;49.002;8.472;2024-01-30T09:05:03;8.32;;;7.32;;
14734;SDS011;7458;49.002;8.472;2024-01-30T09:07:30;6.28;;;5.65;;
14734;SDS011;7458;49.002;8.472;2024-01-30T09:09:56;9.02;;;6.68;;
14734;SDS011;7458;49.002;8.472;2024-01-30T09:12:22;10.77;;;6.35;;
14734;SDS011;7458;49.002;8.472;2024-01-30T09:14:49;8.60;;;6.65;;
14734;SDS011;7458;49.002;8.472;2024-01-30T09:17:15;10.25;;;6.13;;
14734;SDS011;7458;49.002;8.472;2024-01-30T09:19:41;10.40;;;6.78;;
14734;SDS011;7458;49.002;8.472;2024-01-30T09:22:07;11.38;;;7.22;;
14734;SDS011;7458;49.002;8.472;2024-01-30T09:24:33;8.10;;;5.97;;
14734;SDS011;7458;49.002;8.472;2024-01-30T09:27:00;10.07;;;8.32;;
14734;SDS011;7458;49.002;8.472;2024-01-30T09:29:26;8.77;;;6.78;;
14734;SDS011;7458;49.002;8.472;2024-01-30T09:31:52;10.35;;;6.47;;
14734;SDS011;7458;49.002;8.472;2024-01-30T09:34:19;8.68;;;7.80;;
14734;SDS011;7458;49.002;8.472;2024-01-30T09:36:45;10.20;;;7.60;;
14734;SDS011;7458;49.002;8.472;2024-01-30T09:39:11;10.93;;;6.57;;
14734;SDS011;7458;49.002;8.472;2024-01-30T09:41:48;10.35;;;7.32;;
14734;SDS011;7458;49.002;8.472;2024-01-30T09:44:25;8.95;;;7.07;;
14734;SDS011;7458;49.002;8.472;2024-01-30T09:46:55;10.57;;;7.15;;
14734;SDS011;7458;49.002;8.472;2024-01-30T09:49:28;17.15;;;9.32;;
14734;SDS011;7458;49.002;8.472;2024-01-30T09:51:57;15.63;;;11.00;;
14734;SDS011;7458;49.002;8.472;2024-01-30T09:54:23;14.68;;;12.13;;
14734;SDS011;7458;49.002;8.472;2024-01-30T09:56:49;10.70;;;9.05;;
14734;SDS011;7458;49.002;8.472;2024-01-30T09:59:15;15.48;;;10.60;;
14734;SDS011;7458;49.002;8.472;2024-01-30T10:01:42;12.93;;;11.48;;
14734;SDS011;7458;49.002;8.472;2024-01-30T10:04:09;17.13;;;9.30;;
14734;SDS011;7458;49.002;8.472;2024-01-30T10:06:35;15.57;;;10.93;;
14734;SDS011;7458;49.002;8.472;2024-01-30T10:09:02;12.45;;;10.50;;
14734;SDS011;7458;49.002;8.472;2024-01-30T10:11:28;12.65;;;11.35;;
14734;SDS011;7458;49.002;8.472;2024-01-30T10:13:54;16.63;;;11.88;;
14734;SDS011;7458;49.002;8.472;2024-01-30T10:16:19;15.25;;;11.35;;
14734;SDS011;7458;49.002;8.472;2024-01-30T10:18:45;19.20;;;12.95;;
14734;SDS011;7458;49.002;8.472;2024-01-30T10:21:11;12.57;;;10.77;;
14734;SDS011;7458;49.002;8.472;2024-01-30T10:23:37;14.82;;;12.85;;
14734;SDS011;7458;49.002;8.472;2024-01-30T10:26:03;15.30;;;13.15;;
14734;SDS011;7458;49.002;8.472;2024-01-30T10:28:30;14.77;;;10.98;;
14734;SDS011;7458;49.002;8.472;2024-01-30T10:30:59;16.80;;;13.32;;
14734;SDS011;7458;49.002;8.472;2024-01-30T10:33:28;22.45;;;12.98;;
14734;SDS011;7458;49.002;8.472;2024-01-30T10:36:00;14.88;;;12.95;;
14734;SDS011;7458;49.002;8.472;2024-01-30T10:38:28;18.90;;;13.93;;
14734;SDS011;7458;49.002;8.472;2024-01-30T10:40:59;17.42;;;13.35;;
14734;SDS011;7458;49.002;8.472;2024-01-30T10:43:32;16.70;;;13.70;;
14734;SDS011;7458;49.002;8.472;2024-01-30T10:46:16;16.70;;;14.00;;
14734;SDS011;7458;49.002;8.472;2024-01-30T10:48:47;14.70;;;11.75;;
14734;SDS011;7458;49.002;8.472;2024-01-30T10:51:23;14.60;;;12.60;;
14734;SDS011;7458;49.002;8.472;2024-01-30T10:53:52;13.65;;;11.98;;
14734;SDS011;7458;49.002;8.472;2024-01-30T10:56:20;12.07;;;9.93;;
14734;SDS011;7458;49.002;8.472;2024-01-30T10:58:50;19.08;;;12.65;;
14734;SDS011;7458;49.002;8.472;2024-01-30T11:01:18;14.07;;;11.50;;
14734;SDS011;7458;49.002;8.472;2024-01-30T11:03:52;12.52;;;11.23;;
14734;SDS011;7458;49.002;8.472;2024-01-30T11:06:22;14.35;;;11.60;;
14734;SDS011;7458;49.002;8.472;2024-01-30T11:09:02;12.15;;;9.68;;
14734;SDS011;7458;49.002;8.472;2024-01-30T11:11:47;13.93;;;9.80;;
14734;SDS011;7458;49.002;8.472;2024-01-30T11:14:22;16.70;;;13.20;;
14734;SDS011;7458;49.002;8.472;2024-01-30T11:16:50;13.30;;;10.40;;
14734;SDS011;7458;49.002;8.472;2024-01-30T11:19:22;15.48;;;10.93;;
14734;SDS011;7458;49.002;8.472;2024-01-30T11:21:52;13.43;;;9.65;;
14734;SDS011;7458;49.002;8.472;2024-01-30T11:24:22;12.93;;;9.68;;
14734;SDS011;7458;49.002;8.472;2024-01-30T11:26:49;14.38;;;11.43;;
14734;SDS011;7458;49.002;8.472;2024-01-30T11:29:24;11.95;;;9.90;;
14734;SDS011;7458;49.002;8.472;2024-01-30T11:31:54;17.10;;;11.05;;
14734;SDS011;7458;49.002;8.472;2024-01-30T11:34:21;9.93;;;8.63;;
14734;SDS011;7458;49.002;8.472;2024-01-30T11:36:51;12.80;;;9.50;;
14734;SDS011;7458;49.002;8.472;2024-01-30T11:39:26;11.52;;;8.93;;
14734;SDS011;7458;49.002;8.472;2024-01-30T11:41:54;13.48;;;9.95;;
14734;SDS011;7458;49.002;8.472;2024-01-30T11:44:20;13.73;;;11.48;;
14734;SDS011;7458;49.002;8.472;2024-01-30T11:46:51;16.88;;;10.40;;
14734;SDS011;7458;49.002;8.472;2024-01-30T11:49:17;12.73;;;11.32;;
14734;SDS011;7458;49.002;8.472;2024-01-30T11:51:47;12.50;;;10.30;;
14734;SDS011;7458;49.002;8.472;2024-01-30T11:54:14;10.48;;;9.43;;
14734;SDS011;7458;49.002;8.472;2024-01-30T11:56:41;13.60;;;8.75;;
14734;SDS011;7458;49.002;8.472;2024-01-30T11:59:08;15.02;;;11.40;;
14734;SDS011;7458;49.002;8.472;2024-01-30T12:01:34;17.83;;;9.93;;
14734;SDS011;7458;49.002;8.472;2024-01-30T12:04:01;11.48;;;9.23;;
14734;SDS011;7458;49.002;8.472;2024-01-30T12:06:27;12.05;;;9.55;;
14734;SDS011;7458;49.002;8.472;2024-01-30T12:08:57;17.35;;;11.07;;
14734;SDS011;7458;49.002;8.472;2024-01-30T12:11:43;12.20;;;10.98;;
14734;SDS011;7458;49.002;8.472;2024-01-30T12:14:12;12.63;;;10.25;;
14734;SDS011;7458;49.002;8.472;2024-01-30T12:16:40;14.20;;;12.70;;
14734;SDS011;7458;49.002;8.472;2024-01-30T12:19:06;13.95;;;11.82;;
14734;SDS011;7458;49.002;8.472;2024-01-30T12:21:33;15.80;;;12.65;;
14734;SDS011;7458;49.002;8.472;2024-01-30T12:24:00;12.27;;;10.60;;
14734;SDS011;7458;49.002;8.472;2024-01-30T12:26:26;17.40;;;11.40;;
14734;SDS011;7458;49.002;8.472;2024-01-30T12:28:54;16.00;;;11.43;;
14734;SDS011;7458;49.002;8.472;2024-01-30T12:31:26;16.95;;;12.55;;
14734;SDS011;7458;49.002;8.472;2024-01-30T12:33:59;12.02;;;10.45;;
14734;SDS011;7458;49.002;8.472;2024-01-30T12:36:25;11.60;;;9.70;;
14734;SDS011;7458;49.002;8.472;2024-01-30T12:38:53;16.05;;;11.35;;
14734;SDS011;7458;49.002;8.472;2024-01-30T12:41:19;15.18;;;10.82;;
14734;SDS011;7458;49.002;8.472;2024-01-30T12:43:45;12.60;;;10.73;;
14734;SDS011;7458;49.002;8.472;2024-01-30T12:46:12;20.98;;;14.20;;
14734;SDS011;7458;49.002;8.472;2024-01-30T12:48:38;13.05;;;11.43;;
14734;SDS011;7458;49.002;8.472;2024-01-30T12:51:04;23.45;;;11.32;;
14734;SDS011;7458;49.002;8.472;2024-01-30T12:53:30;13.93;;;11.88;;
14734;SDS011;7458;49.002;8.472;2024-01-30T12:55:56;14.25;;;11.45;;
14734;SDS011;7458;49.002;8.472;2024-01-30T12:58:22;14.80;;;11.00;;
14734;SDS011;7458;49.002;8.472;2024-01-30T13:00:48;15.05;;;11.40;;
14734;SDS011;7458;49.002;8.472;2024-01-30T13:03:15;15.48;;;10.55;;
14734;SDS011;7458;49.002;8.472;2024-01-30T13:05:41;14.15;;;11.70;;
14734;SDS011;7458;49.002;8.472;2024-01-30T13:08:07;13.40;;;10.68;;
14734;SDS011;7458;49.002;8.472;2024-01-30T13:10:33;16.85;;;12.48;;
14734;SDS011;7458;49.002;8.472;2024-01-30T13:13:00;16.55;;;12.35;;
14734;SDS011;7458;49.002;8.472;2024-01-30T13:15:26;17.45;;;12.50;;
14734;SDS011;7458;49.002;8.472;2024-01-30T13:17:52;13.40;;;11.88;;
14734;SDS011;7458;49.002;8.472;2024-01-30T13:20:19;18.15;;;12.10;;
14734;SDS011;7458;49.002;8.472;2024-01-30T13:22:49;13.23;;;11.82;;
14734;SDS011;7458;49.002;8.472;2024-01-30T13:25:15;13.68;;;11.30;;
14734;SDS011;7458;49.002;8.472;2024-01-30T13:27:41;16.60;;;12.32;;
14734;SDS011;7458;49.002;8.472;2024-01-30T13:30:08;21.52;;;13.15;;
14734;SDS011;7458;49.002;8.472;2024-01-30T13:32:34;16.45;;;13.30;;
14734;SDS011;7458;49.002;8.472;2024-01-30T13:35:01;15.73;;;11.52;;
14734;SDS011;7458;49.002;8.472;2024-01-30T13:37:28;15.25;;;13.48;;
14734;SDS011;7458;49.002;8.472;2024-01-30T13:39:54;18.73;;;13.18;;
14734;SDS011;7458;49.002;8.472;2024-01-30T13:42:21;14.45;;;12.30;;
14734;SDS011;7458;49.002;8.472;2024-01-30T13:44:48;14.50;;;12.93;;
14734;SDS011;7458;49.002;8.472;2024-01-30T13:47:15;18.88;;;12.98;;
14734;SDS011;7458;49.002;8.472;2024-01-30T13:49:41;18.40;;;12.52;;
14734;SDS011;7458;49.002;8.472;2024-01-30T13:52:07;17.33;;;11.88;;
14734;SDS011;7458;49.002;8.472;2024-01-30T13:54:33;19.98;;;14.80;;
14734;SDS011;7458;49.002;8.472;2024-01-30T13:57:00;16.42;;;13.90;;
14734;SDS011;7458;49.002;8.472;2024-01-30T13:59:26;19.92;;;14.30;;
14734;SDS011;7458;49.002;8.472;2024-01-30T14:01:52;18.33;;;13.95;;
14734;SDS011;7458;49.002;8.472;2024-01-30T14:04:18;19.60;;;16.33;;
14734;SDS011;7458;49.002;8.472;2024-01-30T14:06:44;18.73;;;14.68;;
14734;SDS011;7458;49.002;8.472;2024-01-30T14:09:11;21.75;;;16.05;;
14734;SDS011;7458;49.002;8.472;2024-01-30T14:11:39;17.50;;;14.43;;
14734;SDS011;7458;49.002;8.472;2024-01-30T14:14:06;18.60;;;16.08;;
14734;SDS011;7458;49.002;8.472;2024-01-30T14:16:32;26.10;;;18.92;;
14734;SDS011;7458;49.002;8.472;2024-01-30T14:18:59;19.40;;;17.30;;
14734;SDS011;7458;49.002;8.472;2024-01-30T14:21:25;21.95;;;16.75;;
14734;SDS011;7458;49.002;8.472;2024-01-30T14:23:51;21.02;;;17.73;;
14734;SDS011;7458;49.002;8.472;2024-01-30T14:26:17;21.10;;;16.35;;
14734;SDS011;7458;49.002;8.472;2024-01-30T14:28:43;19.27;;;16.00;;
14734;SDS011;7458;49.002;8.472;2024-01-30T14:31:11;16.80;;;14.52;;
14734;SDS011;7458;49.002;8.472;2024-01-30T14:33:37;15.82;;;14.02;;
14734;SDS011;7458;49.002;8.472;2024-01-30T14:36:03;19.20;;;13.43;;
14734;SDS011;7458;49.002;8.472;2024-01-30T14:38:30;18.65;;;12.98;;
14734;SDS011;7458;49.002;8.472;2024-01-30T14:40:56;15.32;;;13.70;;
14734;SDS011;7458;49.002;8.472;2024-01-30T14:43:22;19.63;;;14.68;;